Time;durP1;ratioP1;P1;durP2;ratioP2;P2;SDS_P1;SDS_P2;PMS_P1;PMS_P2;Temp;Humidity;BMP_temperature;BMP_pressure;BME280_temperature;BME280_humidity;BME280_pressure;Samples;Min_cycle;Max_cycle;Signal;HPM_P1;HPM_P2
2023/07/23 00:00:55;;;;;;;16.45;5.40;;;;;;;23.14;74.63;96349.59;5110796;28;20051;-65
2023/07/23 00:03:22;;;;;;;13.65;5.38;;;;;;;22.98;74.04;96388.31;5112473;28;20048;-64
2023/07/23 00:05:51;;;;;;;21.73;6.15;;;;;;;23.14;72.86;96385.09;5113210;28;20378;-63
2023/07/23 00:08:19;;;;;;;17.13;5.15;;;;;;;23.33;71.92;96380.72;5113125;28;20048;-63
2023/07/23 00:10:46;;;;;;;14.52;5.70;;;;;;;23.44;71.38;96367.25;5113045;28;20404;-65
2023/07/23 00:13:13;;;;;;;16.88;5.80;;;;;;;23.49;71.06;96353.47;5112581;28;20043;-65
2023/07/23 00:15:40;;;;;;;23.17;6.07;;;;;;;23.53;70.56;96354.00;5116701;28;20044;-64
2023/07/23 00:18:09;;;;;;;19.90;6.07;;;;;;;23.58;71.76;96365.09;5116517;28;20043;-65
2023/07/23 00:20:36;;;;;;;17.30;6.10;;;;;;;23.51;71.72;96377.34;5116289;28;20055;-64
2023/07/23 00:23:04;;;;;;;11.65;5.65;;;;;;;23.45;72.08;96362.75;5116595;28;20546;-65
2023/07/23 00:25:31;;;;;;;14.90;6.35;;;;;;;23.35;72.90;96347.56;5114546;28;20495;-65
2023/07/23 00:27:58;;;;;;;18.08;5.85;;;;;;;23.27;73.55;96347.44;5116695;28;20413;-64
2023/07/23 00:30:25;;;;;;;15.27;6.72;;;;;;;23.16;73.95;96351.13;5116453;28;20126;-64
2023/07/23 00:32:53;;;;;;;14.05;5.38;;;;;;;23.03;74.01;96362.06;5116435;28;20130;-64
2023/07/23 00:35:23;;;;;;;12.85;4.50;;;;;;;22.90;73.70;96362.34;5116263;28;20047;-65
2023/07/23 00:37:51;;;;;;;9.98;3.63;;;;;;;22.74;74.35;96368.25;5102920;28;20140;-65
2023/07/23 00:40:18;;;;;;;7.32;3.38;;;;;;;22.51;74.97;96367.63;5095773;28;20055;-65
2023/07/23 00:42:45;;;;;;;14.80;4.47;;;;;;;22.32;76.90;96363.94;5095803;28;20044;-65
2023/07/23 00:45:12;;;;;;;11.77;4.10;;;;;;;22.12;77.29;96355.88;5095659;28;20051;-65
2023/07/23 00:47:41;;;;;;;13.48;4.40;;;;;;;21.95;78.30;96355.53;5095536;28;20056;-64
2023/07/23 00:50:09;;;;;;;10.63;3.95;;;;;;;21.69;79.01;96358.66;5095519;28;20072;-64
2023/07/23 00:52:38;;;;;;;10.88;4.03;;;;;;;21.61;79.77;96358.44;5095490;28;20555;-64
2023/07/23 00:55:07;;;;;;;9.57;4.60;;;;;;;21.58;80.35;96356.03;5102521;28;20063;-64
2023/07/23 00:57:34;;;;;;;6.78;4.03;;;;;;;21.56;80.27;96344.72;5116005;28;20131;-64
2023/07/23 01:00:01;;;;;;;10.80;4.60;;;;;;;21.56;80.83;96334.91;5115972;28;20043;-64
2023/07/23 01:02:28;;;;;;;10.57;4.85;;;;;;;21.53;80.94;96337.84;5108312;28;20123;-64
2023/07/23 01:04:57;;;;;;;12.90;5.40;;;;;;;21.53;81.15;96332.53;5095312;28;20052;-64
2023/07/23 01:07:24;;;;;;;10.27;4.22;;;;;;;21.53;80.78;96324.53;5095186;28;20044;-64
2023/07/23 01:09:54;;;;;;;9.13;4.13;;;;;;;21.57;80.57;96311.78;5095238;28;20082;-65
2023/07/23 01:12:21;;;;;;;10.75;4.43;;;;;;;21.57;80.52;96304.66;5094901;28;20048;-64
2023/07/23 01:14:49;;;;;;;13.70;5.63;;;;;;;21.57;80.67;96309.13;5095353;28;20048;-63
2023/07/23 01:17:19;;;;;;;12.20;4.95;;;;;;;21.61;80.29;96301.75;5095072;28;20048;-65
2023/07/23 01:19:46;;;;;;;10.73;4.53;;;;;;;21.60;80.46;96300.88;5095230;28;20440;-65
2023/07/23 01:22:15;;;;;;;14.85;4.68;;;;;;;21.63;79.76;96316.59;5107838;28;20056;-64
2023/07/23 01:24:42;;;;;;;10.77;5.18;;;;;;;21.69;79.39;96323.19;5115016;28;20063;-64
2023/07/23 01:27:09;;;;;;;10.13;4.97;;;;;;;21.72;79.32;96330.91;5115263;28;20545;-64
2023/07/23 01:29:36;;;;;;;8.05;4.68;;;;;;;21.73;79.00;96331.78;5115256;28;20082;-64
2023/07/23 01:32:03;;;;;;;9.88;5.15;;;;;;;21.75;78.87;96319.16;5106018;28;20047;-64
2023/07/23 01:34:31;;;;;;;19.40;5.18;;;;;;;21.81;78.25;96318.66;5094819;28;20732;-65
2023/07/23 01:36:58;;;;;;;8.10;4.70;;;;;;;21.95;77.75;96322.78;5094718;28;20047;-65
2023/07/23 01:39:27;;;;;;;11.48;5.07;;;;;;;22.04;77.86;96319.31;5094744;28;20055;-65
2023/07/23 01:41:54;;;;;;;15.93;5.38;;;;;;;22.19;77.51;96333.06;5094256;28;20068;-65
2023/07/23 01:44:21;;;;;;;11.23;4.03;;;;;;;22.33;76.42;96346.97;5094190;28;20044;-65
2023/07/23 01:46:50;;;;;;;14.20;4.75;;;;;;;22.43;76.38;96350.50;5094432;28;20070;-65
2023/07/23 01:49:17;;;;;;;11.10;4.93;;;;;;;22.46;76.20;96366.19;5094449;28;20125;-65
2023/07/23 01:51:44;;;;;;;10.93;4.88;;;;;;;22.45;76.42;96398.31;5094477;28;20048;-65
2023/07/23 01:54:11;;;;;;;10.80;5.10;;;;;;;22.52;74.26;96399.47;5094504;28;20048;-65
2023/07/23 01:56:39;;;;;;;12.77;5.07;;;;;;;22.49;74.13;96396.22;5093780;28;20132;-65
2023/07/23 01:59:07;;;;;;;11.88;5.05;;;;;;;22.55;74.06;96406.34;5094329;28;20048;-65
2023/07/23 02:01:34;;;;;;;8.50;4.80;;;;;;;22.57;73.80;96418.56;5094217;28;20043;-65
2023/07/23 02:04:01;;;;;;;10.75;4.47;;;;;;;22.62;73.93;96426.16;5093971;28;20409;-65
2023/07/23 02:06:28;;;;;;;11.95;4.80;;;;;;;22.65;74.09;96419.72;5093900;28;20044;-65
2023/07/23 02:08:55;;;;;;;11.38;4.88;;;;;;;22.55;75.05;96425.00;5094031;28;20044;-64
2023/07/23 02:11:22;;;;;;;14.00;5.82;;;;;;;22.53;75.20;96410.97;5094082;28;20048;-63
2023/07/23 02:13:50;;;;;;;13.18;5.45;;;;;;;22.46;75.91;96422.16;5094172;28;20048;-64
2023/07/23 02:16:18;;;;;;;13.18;5.35;;;;;;;22.41;76.38;96418.22;5093951;28;20050;-64
2023/07/23 02:18:45;;;;;;;11.23;4.70;;;;;;;22.32;77.17;96407.41;5095123;28;20048;-64
2023/07/23 02:21:12;;;;;;;18.05;6.22;;;;;;;22.29;77.42;96398.84;5093900;28;20080;-64
2023/07/23 02:23:39;;;;;;;10.75;5.00;;;;;;;22.31;77.47;96388.91;5093855;28;20044;-64
2023/07/23 02:26:06;;;;;;;12.00;4.85;;;;;;;22.29;77.14;96393.50;5102652;28;20052;-65
2023/07/23 02:28:33;;;;;;;10.02;4.90;;;;;;;22.31;77.08;96376.41;5114095;28;20097;-65
2023/07/23 02:31:02;;;;;;;13.27;5.07;;;;;;;22.31;75.69;96363.09;5114037;28;20043;-64
2023/07/23 02:33:29;;;;;;;16.58;5.28;;;;;;;22.36;77.14;96367.19;5114081;28;20561;-64
2023/07/23 02:35:56;;;;;;;10.77;4.53;;;;;;;22.42;76.54;96375.47;5111164;28;20116;-64
2023/07/23 02:38:23;;;;;;;10.63;4.80;;;;;;;22.47;76.82;96372.38;5114173;28;20045;-64
2023/07/23 02:40:55;;;;;;;11.80;4.80;;;;;;;22.50;76.64;96384.56;5113996;28;20481;-65
2023/07/23 02:43:22;;;;;;;12.75;5.07;;;;;;;22.58;76.87;96388.28;5113895;28;20052;-65
2023/07/23 02:45:49;;;;;;;12.70;5.57;;;;;;;22.62;76.16;96383.53;5114158;28;20126;-65
2023/07/23 02:48:17;;;;;;;16.00;5.63;;;;;;;22.50;75.70;96396.09;5111949;28;20093;-64
2023/07/23 02:50:44;;;;;;;11.57;5.53;;;;;;;22.20;76.79;96398.69;5113861;28;20043;-64
2023/07/23 02:53:11;;;;;;;11.00;4.68;;;;;;;22.12;77.08;96390.50;5113795;28;20126;-64
2023/07/23 02:55:38;;;;;;;12.57;4.70;;;;;;;22.13;77.54;96380.69;5113759;28;20043;-64
2023/07/23 02:58:05;;;;;;;12.27;5.55;;;;;;;22.04;77.35;96388.53;5113710;28;20079;-65
2023/07/23 03:00:33;;;;;;;11.98;5.30;;;;;;;22.00;77.90;96410.25;5110644;28;20101;-63
2023/07/23 03:03:00;;;;;;;6.75;4.65;;;;;;;21.93;78.04;96415.22;5093129;28;20052;-64
2023/07/23 03:05:28;;;;;;;14.50;5.47;;;;;;;21.92;77.89;96417.06;5093303;28;20127;-64
2023/07/23 03:07:56;;;;;;;13.38;5.25;;;;;;;22.04;77.51;96411.66;5093092;28;20062;-64
2023/07/23 03:10:23;;;;;;;13.10;4.90;;;;;;;22.05;77.96;96421.31;5093297;28;20169;-64
2023/07/23 03:12:50;;;;;;;13.07;4.78;;;;;;;22.08;77.84;96437.88;5093239;28;20055;-65
2023/07/23 03:15:17;;;;;;;8.25;5.38;;;;;;;22.12;77.72;96456.25;5112952;28;20052;-65
2023/07/23 03:17:44;;;;;;;9.50;4.80;;;;;;;22.00;77.70;96450.19;5113407;28;20047;-64
2023/07/23 03:20:13;;;;;;;12.32;4.80;;;;;;;21.91;76.59;96439.31;5113410;28;20060;-63
2023/07/23 03:22:41;;;;;;;9.73;4.90;;;;;;;21.90;77.82;96447.44;5113535;28;20044;-63
2023/07/23 03:25:09;;;;;;;12.68;4.82;;;;;;;21.80;76.74;96460.72;5109251;28;20084;-64
2023/07/23 03:27:36;;;;;;;8.98;4.25;;;;;;;21.80;77.91;96466.88;5092432;28;20409;-63
2023/07/23 03:30:05;;;;;;;13.05;5.68;;;;;;;21.74;79.56;96456.72;5093074;28;20126;-64
2023/07/23 03:32:32;;;;;;;16.88;5.47;;;;;;;21.78;79.95;96459.97;5093347;28;20044;-64
2023/07/23 03:34:59;;;;;;;13.60;5.57;;;;;;;21.80;79.85;96461.56;5092613;28;20044;-64
2023/07/23 03:37:27;;;;;;;10.43;5.43;;;;;;;21.91;79.10;96460.63;5092910;28;20131;-63
2023/07/23 03:39:55;;;;;;;15.30;5.15;;;;;;;22.06;79.17;96462.94;5092967;28;20044;-64
2023/07/23 03:42:23;;;;;;;15.95;5.13;;;;;;;22.22;78.35;96476.63;5092939;28;20500;-64
2023/07/23 03:44:50;;;;;;;11.30;5.25;;;;;;;22.39;77.79;96478.81;5104925;28;20055;-63
2023/07/23 03:47:19;;;;;;;14.55;5.45;;;;;;;22.62;77.18;96483.94;5114641;28;20052;-66
2023/07/23 03:49:47;;;;;;;9.30;4.68;;;;;;;22.77;76.65;96482.59;5117188;28;20126;-64
2023/07/23 03:52:14;;;;;;;11.88;5.20;;;;;;;22.95;76.80;96489.94;5117467;28;20485;-65
2023/07/23 03:54:42;;;;;;;12.90;5.25;;;;;;;23.09;75.65;96486.84;5117217;28;20400;-64
2023/07/23 03:57:10;;;;;;;11.27;5.32;;;;;;;23.32;73.62;96475.06;5115229;28;20069;-63
2023/07/23 03:59:39;;;;;;;14.40;5.35;;;;;;;23.62;73.03;96472.44;5116841;28;20048;-66
2023/07/23 04:02:07;;;;;;;7.57;4.50;;;;;;;23.88;70.99;96458.47;5117171;28;20048;-64
2023/07/23 04:04:35;;;;;;;9.15;4.15;;;;;;;24.17;69.49;96447.72;5107356;28;20086;-63
2023/07/23 04:07:03;;;;;;;9.95;4.68;;;;;;;24.55;69.04;96449.53;5116700;28;20073;-65
2023/07/23 04:09:30;;;;;;;11.65;4.40;;;;;;;24.92;67.77;96448.63;5116828;28;20630;-65
2023/07/23 04:11:58;;;;;;;13.23;4.55;;;;;;;25.28;67.05;96457.69;5116924;28;20135;-66
2023/07/23 04:14:27;;;;;;;6.45;3.92;;;;;;;25.53;65.36;96456.06;5116080;28;20062;-66
2023/07/23 04:16:55;;;;;;;8.18;3.97;;;;;;;25.84;63.85;96454.78;5093456;28;20184;-63
2023/07/23 04:19:22;;;;;;;10.23;4.80;;;;;;;26.17;62.71;96455.00;5096280;28;20063;-64
2023/07/23 04:21:49;;;;;;;10.00;4.38;;;;;;;26.64;62.21;96460.09;5115532;28;20130;-62
2023/07/23 04:24:16;;;;;;;9.20;4.07;;;;;;;27.10;60.96;96459.75;5116797;28;20085;-66
2023/07/23 04:26:43;;;;;;;13.23;4.45;;;;;;;27.45;59.89;96454.25;5115269;28;20148;-63
2023/07/23 04:29:10;;;;;;;13.40;4.30;;;;;;;27.82;58.54;96463.69;5115179;28;20044;-67
2023/07/23 04:31:39;;;;;;;11.88;4.05;;;;;;;28.18;57.05;96464.28;5116671;28;20063;-66
2023/07/23 04:34:06;;;;;;;10.45;4.30;;;;;;;28.54;55.86;96466.56;5116343;28;20044;-62
2023/07/23 04:36:34;;;;;;;11.05;4.03;;;;;;;28.78;54.65;96464.75;5103329;28;20444;-64
2023/07/23 04:39:03;;;;;;;9.68;3.92;;;;;;;28.72;53.69;96471.66;5095934;28;20101;-63
2023/07/23 04:41:30;;;;;;;12.80;4.63;;;;;;;28.53;52.96;96475.59;5095733;28;20044;-62
2023/07/23 04:43:58;;;;;;;8.65;4.28;;;;;;;28.50;52.95;96476.81;5095816;28;20127;-64
2023/07/23 04:46:25;;;;;;;10.65;4.43;;;;;;;28.49;53.08;96468.91;5095389;28;20485;-62
2023/07/23 04:48:54;;;;;;;10.65;4.47;;;;;;;28.36;53.21;96474.84;5098443;28;20097;-62
2023/07/23 04:51:21;;;;;;;8.00;4.80;;;;;;;28.08;54.46;96488.66;5084332;28;20048;-64
2023/07/23 04:53:49;;;;;;;12.07;4.78;;;;;;;28.09;55.22;96483.13;5095499;28;20052;-64
2023/07/23 04:56:16;;;;;;;11.90;4.40;;;;;;;28.19;56.19;96482.91;5113538;28;20043;-65
2023/07/23 04:58:43;;;;;;;11.05;4.80;;;;;;;28.07;54.98;96487.81;5115126;28;20130;-65
2023/07/23 05:01:12;;;;;;;10.73;4.22;;;;;;;28.00;55.37;96486.81;5115931;28;20455;-64
2023/07/23 05:03:40;;;;;;;12.55;4.70;;;;;;;27.90;55.86;96492.34;5115515;28;20146;-65
2023/07/23 05:06:10;;;;;;;8.13;4.78;;;;;;;27.71;55.95;96494.41;5097906;28;20079;-65
2023/07/23 05:08:37;;;;;;;10.68;4.82;;;;;;;27.48;56.83;96494.19;5095277;28;20139;-64
2023/07/23 05:11:06;;;;;;;10.90;4.85;;;;;;;27.17;57.23;96497.50;5095278;28;20547;-61
2023/07/23 05:13:34;;;;;;;10.73;4.95;;;;;;;27.14;58.21;96500.53;5096311;28;20123;-64
2023/07/23 05:16:03;;;;;;;9.73;4.88;;;;;;;27.17;58.64;96503.72;5115652;28;20058;-63
2023/07/23 05:18:31;;;;;;;9.55;4.75;;;;;;;27.44;59.17;96503.56;5115592;28;20040;-65
2023/07/23 05:20:58;;;;;;;11.00;4.47;;;;;;;27.74;58.09;96504.81;5115494;28;20507;-60
2023/07/23 05:23:27;;;;;;;11.93;4.57;;;;;;;28.17;57.13;96516.38;5115442;28;20126;-62
2023/07/23 05:25:57;;;;;;;15.60;4.30;;;;;;;28.73;55.16;96496.72;5113310;28;20048;-60
2023/07/23 05:28:25;;;;;;;7.20;3.97;;;;;;;29.17;53.81;96510.66;5115536;28;20059;-70
2023/07/23 05:30:58;;;;;;;16.73;4.82;;;;;;;29.52;51.62;96517.34;5115366;28;20505;-60
2023/07/23 05:33:26;;;;;;;9.82;4.60;;;;;;;29.85;51.48;96505.50;5115322;28;20392;-64
2023/07/23 05:35:55;;;;;;;11.82;4.43;;;;;;;30.21;51.31;96519.34;5115106;28;20465;-67
2023/07/23 05:38:22;;;;;;;17.23;5.18;;;;;;;30.62;50.68;96516.22;5113107;28;20051;-72
2023/07/23 05:40:59;;;;;;;11.32;4.43;;;;;;;31.09;50.58;96520.56;5115151;28;20047;-72
2023/07/23 05:43:27;;;;;;;24.33;5.47;;;;;;;31.35;49.24;96522.75;5114962;28;20056;-65
2023/07/23 05:45:54;;;;;;;7.78;4.45;;;;;;;31.53;49.90;96516.06;5106193;28;20098;-63
2023/07/23 05:48:22;;;;;;;10.93;4.38;;;;;;;31.68;48.84;96517.84;5094488;28;20079;-64
2023/07/23 05:50:50;;;;;;;14.00;4.75;;;;;;;32.00;48.84;96515.69;5094434;28;20069;-71
2023/07/23 05:53:17;;;;;;;10.75;5.05;;;;;;;32.19;45.94;96522.28;5094431;28;20047;-66
2023/07/23 05:55:44;;;;;;;15.52;5.10;;;;;;;32.55;46.22;96520.44;5100665;28;20460;-67
2023/07/23 05:58:13;;;;;;;10.27;4.25;;;;;;;32.90;44.88;96514.19;5106549;28;20047;-69
2023/07/23 06:00:40;;;;;;;12.32;4.40;;;;;;;33.12;43.83;96503.22;5103977;28;20439;-64
2023/07/23 06:03:07;;;;;;;15.07;4.60;;;;;;;33.34;42.73;96505.78;5114222;28;20044;-70
2023/07/23 06:05:35;;;;;;;12.82;5.65;;;;;;;33.38;43.25;96504.34;5114617;28;20043;-66
2023/07/23 06:08:02;;;;;;;12.80;5.28;;;;;;;33.60;45.46;96505.03;5108690;28;20044;-65
2023/07/23 06:10:30;;;;;;;16.20;4.68;;;;;;;33.84;44.98;96501.94;5093150;28;20492;-64
2023/07/23 06:12:57;;;;;;;10.73;4.15;;;;;;;33.90;42.04;96499.22;5094167;28;20048;-61
2023/07/23 06:15:26;;;;;;;12.70;4.72;;;;;;;34.16;42.03;96502.16;5093985;28;20079;-66
2023/07/23 06:17:54;;;;;;;10.00;4.68;;;;;;;34.40;40.88;96503.38;5093888;28;20056;-70
2023/07/23 06:20:21;;;;;;;15.75;5.15;;;;;;;34.56;41.37;96505.84;5099636;28;20044;-62
2023/07/23 06:22:48;;;;;;;15.95;5.28;;;;;;;34.71;39.07;96492.88;5114439;28;20079;-68
2023/07/23 06:25:17;;;;;;;12.45;5.60;;;;;;;34.83;41.71;96497.63;5114093;28;20053;-71
2023/07/23 06:27:44;;;;;;;15.65;5.47;;;;;;;35.06;41.17;96497.09;5114181;28;20474;-64
2023/07/23 06:30:12;;;;;;;15.02;5.10;;;;;;;35.30;40.46;96500.16;5114083;28;20043;-65
2023/07/23 06:32:41;;;;;;;13.35;5.90;;;;;;;35.28;39.05;96500.34;5106098;28;20492;-69
2023/07/23 06:35:10;;;;;;;9.73;5.30;;;;;;;35.42;40.08;96503.84;5093393;28;20479;-63
2023/07/23 06:37:38;;;;;;;11.73;5.50;;;;;;;35.65;39.05;96498.88;5102040;28;20090;-63
2023/07/23 06:40:07;;;;;;;11.48;4.95;;;;;;;35.84;37.27;96499.00;5097812;28;20040;-68
2023/07/23 06:42:34;;;;;;;18.88;6.30;;;;;;;35.90;36.43;96500.81;5112478;28;20496;-68
2023/07/23 06:45:02;;;;;;;19.80;6.00;;;;;;;35.85;35.50;96492.50;5097015;28;20051;-70
2023/07/23 06:47:29;;;;;;;16.23;5.28;;;;;;;35.88;36.60;96495.59;5093318;28;20040;-65
2023/07/23 06:49:57;;;;;;;16.17;5.22;;;;;;;36.08;36.84;96497.31;5093282;28;20059;-67
2023/07/23 06:52:25;;;;;;;19.48;5.72;;;;;;;36.11;37.06;96491.41;5106417;28;20043;-69
2023/07/23 06:54:52;;;;;;;13.85;5.38;;;;;;;36.04;37.53;96491.50;5112001;28;20051;-68
2023/07/23 06:57:20;;;;;;;16.15;5.72;;;;;;;35.98;37.61;96492.38;5112229;28;20047;-66
2023/07/23 06:59:48;;;;;;;15.13;5.60;;;;;;;36.08;37.02;96491.06;5091678;28;20055;-65
2023/07/23 07:02:16;;;;;;;16.50;5.55;;;;;;;35.84;36.14;96497.09;5092972;28;20044;-63
2023/07/23 07:04:43;;;;;;;16.13;5.32;;;;;;;35.97;35.88;96498.03;5093221;28;20047;-65
2023/07/23 07:07:11;;;;;;;14.32;5.47;;;;;;;36.17;35.21;96495.13;5093245;28;20044;-65
2023/07/23 07:09:39;;;;;;;15.98;5.32;;;;;;;36.27;35.33;96498.19;5093149;28;20076;-63
2023/07/23 07:12:08;;;;;;;19.30;5.25;;;;;;;36.37;35.12;96500.41;5093184;28;20055;-70
2023/07/23 07:14:35;;;;;;;15.73;5.15;;;;;;;36.14;35.15;96507.31;5093196;28;20044;-65
2023/07/23 07:17:02;;;;;;;23.35;5.65;;;;;;;35.97;34.24;96500.75;5093147;28;20048;-65
2023/07/23 07:19:29;;;;;;;15.38;5.70;;;;;;;35.96;34.81;96508.06;5093106;28;20136;-61
2023/07/23 07:21:57;;;;;;;14.15;5.70;;;;;;;36.02;35.18;96504.47;5093535;28;20048;-62
2023/07/23 07:24:25;;;;;;;18.75;5.82;;;;;;;36.36;34.77;96503.38;5097305;28;20115;-61
2023/07/23 07:26:53;;;;;;;20.67;5.32;;;;;;;36.71;34.60;96493.81;5097249;28;20044;-61
2023/07/23 07:29:23;;;;;;;13.85;5.68;;;;;;;36.81;34.75;96502.28;5097335;28;20059;-61
2023/07/23 07:31:51;;;;;;;22.98;5.97;;;;;;;36.70;32.37;96501.16;5097266;28;20105;-61
2023/07/23 07:34:18;;;;;;;17.40;5.97;;;;;;;36.66;33.20;96499.91;5117177;28;20048;-61
2023/07/23 07:36:46;;;;;;;17.73;5.72;;;;;;;36.71;34.14;96508.25;5117407;28;20086;-62
2023/07/23 07:39:13;;;;;;;13.80;6.25;;;;;;;36.69;33.82;96504.91;5117712;28;20093;-61
2023/07/23 07:41:43;;;;;;;18.23;5.95;;;;;;;36.79;32.80;96505.22;5117557;28;20105;-62
2023/07/23 07:44:13;;;;;;;15.23;6.18;;;;;;;36.71;33.54;96497.34;5117618;28;20066;-62
2023/07/23 07:46:41;;;;;;;15.07;5.63;;;;;;;36.99;33.00;96503.31;5115212;28;20043;-62
2023/07/23 07:49:09;;;;;;;20.23;6.15;;;;;;;36.86;33.57;96496.13;5117091;28;20497;-61
2023/07/23 07:51:38;;;;;;;20.38;5.65;;;;;;;36.86;33.35;96494.25;5117578;28;20040;-62
2023/07/23 07:54:10;;;;;;;23.63;6.38;;;;;;;36.99;33.87;96493.22;5117013;28;20138;-62
2023/07/23 07:56:38;;;;;;;15.40;5.65;;;;;;;37.07;32.31;96496.72;5104835;28;20051;-62
2023/07/23 07:59:08;;;;;;;9.68;5.93;;;;;;;37.11;32.85;96489.75;5096662;28;20087;-62
2023/07/23 08:01:36;;;;;;;15.93;5.15;;;;;;;37.20;31.55;96493.00;5096626;28;20052;-62
2023/07/23 08:04:07;;;;;;;14.25;6.07;;;;;;;36.78;31.22;96494.56;5096336;28;20109;-62
2023/07/23 08:06:35;;;;;;;16.85;6.25;;;;;;;36.19;30.42;96495.75;5096429;28;20135;-62
2023/07/23 08:09:05;;;;;;;11.32;5.68;;;;;;;36.16;32.54;96488.88;5096138;28;20052;-62
2023/07/23 08:11:37;;;;;;;11.63;6.80;;;;;;;36.47;31.16;96488.19;5096554;28;20113;-62
2023/07/23 08:14:10;;;;;;;12.48;7.30;;;;;;;36.44;27.15;96483.19;5096325;28;20097;-62
2023/07/23 08:16:38;;;;;;;18.02;7.32;;;;;;;36.52;29.27;96485.59;5097300;28;20114;-62
2023/07/23 08:19:08;;;;;;;11.43;6.05;;;;;;;36.61;28.06;96489.69;5096105;28;20044;-62
2023/07/23 08:21:35;;;;;;;15.95;7.35;;;;;;;36.71;29.02;96497.34;5096116;28;20040;-62
2023/07/23 08:24:04;;;;;;;14.20;6.82;;;;;;;36.79;26.36;96497.06;5095104;28;20044;-61
2023/07/23 08:26:36;;;;;;;13.98;7.82;;;;;;;36.88;24.40;96486.69;5094101;28;20478;-62
2023/07/23 08:29:07;;;;;;;13.70;7.65;;;;;;;36.92;27.33;96490.59;5075518;28;20087;-61
2023/07/23 08:31:35;;;;;;;16.38;6.82;;;;;;;37.04;27.41;96490.66;5075364;28;20079;-61
2023/07/23 08:34:03;;;;;;;13.43;7.53;;;;;;;37.09;27.15;96484.53;5074820;28;20109;-61
2023/07/23 08:36:32;;;;;;;17.63;6.28;;;;;;;37.23;27.56;96484.38;5075571;28;20109;-61
2023/07/23 08:39:00;;;;;;;12.57;6.75;;;;;;;37.28;29.38;96495.41;5111285;28;20044;-61
2023/07/23 08:41:37;;;;;;;13.38;7.25;;;;;;;37.38;28.04;96484.78;5110789;28;20052;-61
2023/07/23 08:44:43;;;;;;;11.20;7.32;;;;;;;37.49;27.88;96488.59;5095640;28;20075;-61
2023/07/23 08:47:12;;;;;;;15.55;7.00;;;;;;;37.17;26.49;96488.84;5072900;28;20036;-61
2023/07/23 08:49:42;;;;;;;10.95;7.35;;;;;;;36.83;26.70;96486.53;5095503;28;20048;-61
2023/07/23 08:52:12;;;;;;;11.80;7.03;;;;;;;36.30;28.39;96496.94;5095385;28;20056;-61
2023/07/23 08:54:41;;;;;;;12.48;7.07;;;;;;;36.07;27.42;96505.69;5095380;28;20043;-61
2023/07/23 08:57:11;;;;;;;15.85;7.32;;;;;;;35.98;28.82;96505.13;5095176;28;20481;-61
2023/07/23 08:59:48;;;;;;;12.48;7.53;;;;;;;35.61;28.16;96493.06;5095022;28;20048;-61
2023/07/23 09:02:21;;;;;;;11.52;7.25;;;;;;;35.56;28.04;96497.47;5094977;28;20417;-61
2023/07/23 09:04:51;;;;;;;13.23;7.28;;;;;;;35.28;27.05;96491.41;5095551;28;20401;-61
2023/07/23 09:07:21;;;;;;;16.90;7.25;;;;;;;34.63;27.06;96498.50;5095346;28;20055;-61
2023/07/23 09:09:50;;;;;;;10.60;7.10;;;;;;;34.32;29.27;96495.47;5095115;28;20508;-61
2023/07/23 09:12:19;;;;;;;9.77;7.20;;;;;;;34.50;28.06;96491.25;5095040;28;20059;-60
2023/07/23 09:14:49;;;;;;;12.05;7.18;;;;;;;34.32;28.03;96495.47;5095065;28;20097;-61
2023/07/23 09:17:20;;;;;;;;;;;;;;;34.40;30.29;96492.50;5095292;28;20048;-60
2023/07/23 09:19:49;;;;;;;15.07;6.80;;;;;;;34.74;27.21;96497.88;5093051;28;19927;-61
2023/07/23 09:22:20;;;;;;;13.65;7.43;;;;;;;34.93;27.73;96503.44;5094836;28;20066;-60
2023/07/23 09:25:04;;;;;;;12.10;7.85;;;;;;;35.08;26.20;96499.59;5093658;28;20080;-61
2023/07/23 09:27:37;;;;;;;13.23;7.75;;;;;;;35.34;26.69;96503.28;5093590;28;20044;-61
2023/07/23 09:30:09;;;;;;;11.75;7.20;;;;;;;35.01;27.62;96500.50;5096922;28;20048;-61
2023/07/23 09:32:37;;;;;;;10.25;7.47;;;;;;;35.07;26.22;96506.94;5094674;28;20044;-60
2023/07/23 09:35:08;;;;;;;9.65;6.30;;;;;;;35.12;25.96;96506.28;5094202;28;20110;-61
2023/07/23 09:37:39;;;;;;;11.18;7.32;;;;;;;34.98;26.35;96513.66;5094361;28;20079;-61
2023/07/23 09:40:08;;;;;;;12.93;7.38;;;;;;;35.00;25.31;96506.97;5102198;28;20044;-62
2023/07/23 09:42:39;;;;;;;10.90;7.68;;;;;;;34.99;25.59;96509.88;5093130;28;20080;-61
2023/07/23 09:45:10;;;;;;;11.18;7.28;;;;;;;34.98;24.75;96510.94;5093827;28;20442;-62
2023/07/23 09:47:38;;;;;;;8.40;6.85;;;;;;;34.48;25.78;96498.75;5094337;28;20044;-61
2023/07/23 09:50:13;;;;;;;10.65;7.22;;;;;;;34.33;28.19;96504.41;5094608;28;20073;-61
2023/07/23 09:52:41;;;;;;;11.30;6.93;;;;;;;34.39;27.31;96498.16;5094028;28;20044;-61
2023/07/23 09:55:14;;;;;;;8.55;6.40;;;;;;;34.25;27.23;96511.72;5094151;28;20051;-61
2023/07/23 09:57:45;;;;;;;8.63;6.97;;;;;;;34.39;26.98;96501.69;5094267;28;20039;-61
2023/07/23 10:00:16;;;;;;;10.95;6.35;;;;;;;34.39;27.22;96509.00;5099752;28;20047;-61
2023/07/23 10:02:46;;;;;;;10.73;6.75;;;;;;;34.53;26.20;96504.38;5095492;28;20040;-61
2023/07/23 10:05:15;;;;;;;;;;;;;;;34.72;25.16;96499.97;5094554;28;20139;-62
2023/07/23 10:07:45;;;;;;;9.98;6.63;;;;;;;34.51;25.05;96503.75;5091185;28;19939;-61
2023/07/23 10:10:13;;;;;;;10.20;7.63;;;;;;;34.38;24.37;96507.34;5091509;28;20063;-62
2023/07/23 10:12:41;;;;;;;12.27;7.13;;;;;;;34.39;26.68;96509.00;5100982;28;20040;-62
2023/07/23 10:15:10;;;;;;;13.80;7.20;;;;;;;34.32;23.42;96516.31;5091118;28;20422;-62
2023/07/23 10:17:43;;;;;;;10.82;7.55;;;;;;;34.14;24.61;96501.53;5105118;28;20070;-62
2023/07/23 10:20:15;;;;;;;12.45;7.63;;;;;;;33.91;25.45;96500.03;5087864;28;20040;-61
2023/07/23 10:22:46;;;;;;;10.43;7.63;;;;;;;33.98;23.48;96503.59;5095234;28;20051;-62
2023/07/23 10:25:25;;;;;;;10.13;7.47;;;;;;;34.18;24.70;96501.94;5098117;28;20079;-61
2023/07/23 10:28:00;;;;;;;13.35;8.00;;;;;;;34.22;25.29;96489.63;5096861;28;20501;-62
2023/07/23 10:30:28;;;;;;;12.80;7.25;;;;;;;34.14;24.28;96477.97;5096696;28;20055;-62
2023/07/23 10:33:35;;;;;;;10.70;7.70;;;;;;;34.28;26.09;96491.50;5094625;28;20044;-62
2023/07/23 10:36:05;;;;;;;9.52;7.25;;;;;;;33.77;25.89;96493.81;5089793;28;20485;-62
2023/07/23 10:38:34;;;;;;;9.40;7.18;;;;;;;33.59;26.78;96495.22;5093097;28;20040;-61
2023/07/23 10:41:02;;;;;;;16.75;7.53;;;;;;;33.53;25.65;96487.91;5095790;28;20146;-61
2023/07/23 10:43:43;;;;;;;10.05;7.32;;;;;;;33.40;26.11;96488.72;5091880;28;20040;-61
2023/07/23 10:46:12;;;;;;;7.90;6.45;;;;;;;33.33;25.79;96487.88;5101848;28;20048;-61
2023/07/23 10:48:42;;;;;;;13.02;6.85;;;;;;;33.27;27.70;96498.50;5095655;28;20044;-61
2023/07/23 10:51:13;;;;;;;11.07;7.47;;;;;;;33.43;26.71;96491.00;5093501;28;20048;-61
2023/07/23 10:53:42;;;;;;;10.30;8.00;;;;;;;33.50;25.96;96499.16;5093404;28;20764;-61
2023/07/23 10:56:23;;;;;;;9.82;7.75;;;;;;;33.71;25.45;96494.63;5092984;28;20080;-61
2023/07/23 10:58:56;;;;;;;9.18;6.85;;;;;;;33.70;24.52;96493.78;5093378;28;20048;-61
2023/07/23 11:01:27;;;;;;;11.75;7.97;;;;;;;33.76;25.75;96492.97;5093076;28;20532;-61
2023/07/23 11:03:56;;;;;;;;;;;;;;;33.96;26.63;96494.00;5093381;28;20048;-61
2023/07/23 11:06:31;;;;;;;9.13;7.27;;;;;;;33.91;25.13;96497.34;5093176;28;19924;-61
2023/07/23 11:09:03;;;;;;;9.80;7.35;;;;;;;33.63;25.40;96484.81;5093499;28;20050;-61
2023/07/23 11:11:38;;;;;;;8.20;6.80;;;;;;;33.58;27.81;96492.69;5093133;28;20047;-61
2023/07/23 11:14:19;;;;;;;11.02;6.70;;;;;;;33.36;29.66;96482.88;5093074;28;20477;-61
2023/07/23 11:16:51;;;;;;;8.38;6.82;;;;;;;33.42;27.75;96483.94;5092959;28;20047;-61
2023/07/23 11:19:22;;;;;;;12.73;6.97;;;;;;;33.01;28.18;96488.38;5092339;28;20059;-62
2023/07/23 11:21:56;;;;;;;12.10;6.85;;;;;;;33.05;29.46;96489.69;5072909;28;20048;-61
2023/07/23 11:24:26;;;;;;;9.70;6.78;;;;;;;32.94;29.36;96492.94;5095434;28;20048;-61
2023/07/23 11:26:58;;;;;;;8.98;7.00;;;;;;;33.05;28.97;96486.13;5111592;28;20517;-61
2023/07/23 11:29:29;;;;;;;10.55;6.43;;;;;;;33.24;29.16;96488.06;5112073;28;20048;-62
2023/07/23 11:31:57;;;;;;;14.13;7.15;;;;;;;33.41;27.90;96479.56;5093015;28;20053;-61
2023/07/23 11:34:26;;;;;;;11.27;7.13;;;;;;;33.55;27.67;96491.22;5092887;28;20497;-61